Captain Jimmy T Moran — WDE6653 — position and weather

sailwx.info

Track history (hours):
 
Tides and Currents Weather Stations Pressure Air Temp Water Temp Dewpoint Dewpoint Depression Visibility Wind Speed Wind Dir Waves Ship Positions

Captain Jimmy T Moran

Owner: Moran Towing Corp, New Cannan, CT. More information available from US FCC via Universal Licensing System and Coast Guard Vessel Documentation Center.

Last reported at 2015-Jul-07 04:33 UTC. Time now 2015-Jul-07 04:35 UTC.
Position N 29°55' W 090°04'.

Length 26 m; draft 4.9 m.

Type: Tug. MMSI: 367382920.

Date/timePositionNaut miles runAvg speedWind from/ knotsBaromVisibWave heightAir tempDewpointWater temp
2015-Jul-07 04:33N 29°55' W 090°04'0 0.0
2015-Jul-07 03:33N 29°55' W 090°04'0 0.5
2015-Jul-07 02:32N 29°55' W 090°04'0 0.0
2015-Jul-07 01:27N 29°55' W 090°04'0 0.5
2015-Jul-07 00:33N 29°55' W 090°04'0 0.0
2015-Jul-06 23:31N 29°55' W 090°04'0 0.0
2015-Jul-06 22:31N 29°55' W 090°04'2 1.7
2015-Jul-06 21:28N 29°55' W 090°06'0 0.3
2015-Jul-06 20:28N 29°55' W 090°06'0 0.2
2015-Jul-06 19:33N 29°55' W 090°06'0 0.4
2015-Jul-06 18:25N 29°55' W 090°05'5 5.2
2015-Jul-06 17:32N 29°57' W 090°01'2 0.1
2015-Jul-06 00:33N 29°57' W 090°03'3 2.6
2015-Jul-05 23:27N 29°56' W 090°00'1 1.5
2015-Jul-05 22:32N 29°57' W 090°01'0 0.0
2015-Jul-05 21:33N 29°57' W 090°01'5 4.9
2015-Jul-05 20:26N 29°55' W 090°07'1 0.9
2015-Jul-05 19:31N 29°55' W 090°06'0 0.0
2015-Jul-05 18:30N 29°55' W 090°06'0 0.0
2015-Jul-05 09:31N 29°55' W 090°05'3 1.0
2015-Jul-05 06:17N 29°57' W 090°03'1 0.0
2015-Jul-04 10:30N 29°57' W 090°04'3 0.1
2015-Jul-03 06:08N 29°57' W 090°00'5 7.6
2015-Jul-03 05:32N 29°55' W 090°05'3 3.0
2015-Jul-03 04:32N 29°57' W 090°03'2 0.1
2015-Jul-02 10:10N 29°57' W 090°01'5 7.6
2015-Jul-02 09:30N 29°55' W 090°06'0 0.0
2015-Jul-02 08:21N 29°55' W 090°06'0 0.0
2015-Jul-02 07:31N 29°55' W 090°06'0 0.0
2015-Jul-02 06:33N 29°55' W 090°06'0 0.0
2015-Jul-02 05:32N 29°55' W 090°06'0 0.0
2015-Jul-02 04:33N 29°55' W 090°06'0 0.0
2015-Jul-02 03:33N 29°55' W 090°06'0 0.0
2015-Jul-02 02:33N 29°55' W 090°06'0 0.0
2015-Jul-02 01:32N 29°55' W 090°06'0 0.0
2015-Jul-02 00:32N 29°55' W 090°06'1 0.6
2015-Jul-01 23:30N 29°55' W 090°07'2 1.0
2015-Jul-01 21:31N 29°55' W 090°04'0 0.0
2015-Jul-01 20:28N 29°55' W 090°04'0 0.0
2015-Jul-01 19:19N 29°55' W 090°04'0 0.0
2015-Jul-01 18:27N 29°55' W 090°04'0 0.0
2015-Jul-01 17:32N 29°55' W 090°04'0 0.0
2015-Jul-01 16:33N 29°55' W 090°04'0 0.0
2015-Jul-01 15:25N 29°55' W 090°04'1 1.6
2015-Jul-01 14:31N 29°55' W 090°06'0 0.0
2015-Jul-01 13:33N 29°55' W 090°06'0 0.0
2015-Jul-01 12:25N 29°55' W 090°06'0 0.0
2015-Jul-01 11:27N 29°55' W 090°06'1 0.6
2015-Jul-01 10:23N 29°55' W 090°07'1 0.7
2015-Jul-01 09:31N 29°55' W 090°06'0 0.0
2015-Jul-01 08:33N 29°55' W 090°06'0 0.0
2015-Jul-01 07:32N 29°55' W 090°06'0 0.0
2015-Jul-01 06:33N 29°55' W 090°06'0 0.0
2015-Jul-01 05:32N 29°55' W 090°06'0 0.0
2015-Jul-01 04:33N 29°55' W 090°06'0 0.0
2015-Jul-01 03:31N 29°55' W 090°06'0 0.0
2015-Jul-01 02:32N 29°55' W 090°06'0 0.0
2015-Jul-01 01:09N 29°55' W 090°06'0 0.0
2015-Jun-30 08:04N 29°55' W 090°06'0 0.0
2015-Jun-30 05:33N 29°55' W 090°06'0 0.0
2015-Jun-30 04:31N 29°55' W 090°06'0 0.4
2015-Jun-30 03:32N 29°55' W 090°06'0 0.0
2015-Jun-30 01:29N 29°55' W 090°06'0 0.1
2015-Jun-30 00:32N 29°55' W 090°06'0 0.1
2015-Jun-29 23:25N 29°55' W 090°06'0 0.2
2015-Jun-29 22:28N 29°55' W 090°06'0 0.0
2015-Jun-29 11:06N 29°55' W 090°06'1 1.0
2015-Jun-29 10:32N 29°55' W 090°05'0 0.5
2015-Jun-29 09:29N 29°55' W 090°06'0 0.0
2015-Jun-29 08:27N 29°55' W 090°06'1 0.1
2015-Jun-29 00:05N 29°55' W 090°05'2 0.9
2015-Jun-28 22:24N 29°55' W 090°07'1 1.4
2015-Jun-28 21:33N 29°55' W 090°05'0 0.0
2015-Jun-28 19:14N 29°55' W 090°05'1 1.0
2015-Jun-28 18:21N 29°54' W 090°06'0 0.1
2015-Jun-28 13:09N 29°55' W 090°06'0 0.0
2015-Jun-28 11:33N 29°55' W 090°06'0 0.0
2015-Jun-28 10:30N 29°55' W 090°06'0 0.0
2015-Jun-28 09:18N 29°55' W 090°06'0 0.0
2015-Jun-28 08:32N 29°55' W 090°06'0 0.0
2015-Jun-28 06:32N 29°55' W 090°06'0 0.0
2015-Jun-28 05:32N 29°55' W 090°06'1 0.4
2015-Jun-28 04:20N 29°54' W 090°06'1 1.1
2015-Jun-28 03:31N 29°55' W 090°05'0 0.1
2015-Jun-28 01:20N 29°55' W 090°05'0 0.6
2015-Jun-28 00:31N 29°55' W 090°06'0 0.0
2015-Jun-27 23:25N 29°55' W 090°06'0 0.0
2015-Jun-27 22:22N 29°55' W 090°06'0 0.0
2015-Jun-27 21:32N 29°55' W 090°06'0 0.0
2015-Jun-27 20:30N 29°55' W 090°06'0 0.0
2015-Jun-27 19:32N 29°55' W 090°06'0 0.0
2015-Jun-27 17:21N 29°55' W 090°06'0 0.0
2015-Jun-27 16:33N 29°55' W 090°06'0 0.0
2015-Jun-27 15:24N 29°55' W 090°06'0 0.0
2015-Jun-27 14:30N 29°55' W 090°06'0 0.0
2015-Jun-27 13:30N 29°55' W 090°06'0 0.4
2015-Jun-27 12:31N 29°55' W 090°06'0 0.4
2015-Jun-27 11:33N 29°55' W 090°06'0 0.0
2015-Jun-27 10:31N 29°55' W 090°06'0 0.0
2015-Jun-27 09:33N 29°55' W 090°06'0 0.0
2015-Jun-27 08:30N 29°55' W 090°06'0 0.0
2015-Jun-27 07:32N 29°55' W 090°06'0 0.0
2015-Jun-27 06:32N 29°55' W 090°06'0 0.5
2015-Jun-27 05:33N 29°55' W 090°05'  
Track history (hours):
 
Tides and Currents Weather Stations Pressure Air Temp Water Temp Dewpoint Dewpoint Depression Visibility Wind Speed Wind Dir Waves Ship Positions

Captain Jimmy T Moran

Owner: Moran Towing Corp, New Cannan, CT. More information available from US FCC via Universal Licensing System and Coast Guard Vessel Documentation Center.

Last reported at 2015-Jul-07 04:33 UTC. Time now 2015-Jul-07 04:35 UTC.
Position N 29°55' W 090°04'.

Length 26 m; draft 4.9 m.

Type: Tug. MMSI: 367382920.

Date/timePositionNaut miles runAvg speedWind from/ knotsBaromVisibWave heightAir tempDewpointWater temp
2015-Jul-07 04:33N 29°55' W 090°04'0 0.0
2015-Jul-07 03:33N 29°55' W 090°04'0 0.5
2015-Jul-07 02:32N 29°55' W 090°04'0 0.0
2015-Jul-07 01:27N 29°55' W 090°04'0 0.5
2015-Jul-07 00:33N 29°55' W 090°04'0 0.0
2015-Jul-06 23:31N 29°55' W 090°04'0 0.0
2015-Jul-06 22:31N 29°55' W 090°04'2 1.7
2015-Jul-06 21:28N 29°55' W 090°06'0 0.3
2015-Jul-06 20:28N 29°55' W 090°06'0 0.2
2015-Jul-06 19:33N 29°55' W 090°06'0 0.4
2015-Jul-06 18:25N 29°55' W 090°05'5 5.2
2015-Jul-06 17:32N 29°57' W 090°01'2 0.1
2015-Jul-06 00:33N 29°57' W 090°03'3 2.6
2015-Jul-05 23:27N 29°56' W 090°00'1 1.5
2015-Jul-05 22:32N 29°57' W 090°01'0 0.0
2015-Jul-05 21:33N 29°57' W 090°01'5 4.9
2015-Jul-05 20:26N 29°55' W 090°07'1 0.9
2015-Jul-05 19:31N 29°55' W 090°06'0 0.0
2015-Jul-05 18:30N 29°55' W 090°06'0 0.0
2015-Jul-05 09:31N 29°55' W 090°05'3 1.0
2015-Jul-05 06:17N 29°57' W 090°03'1 0.0
2015-Jul-04 10:30N 29°57' W 090°04'3 0.1
2015-Jul-03 06:08N 29°57' W 090°00'5 7.6
2015-Jul-03 05:32N 29°55' W 090°05'3 3.0
2015-Jul-03 04:32N 29°57' W 090°03'2 0.1
2015-Jul-02 10:10N 29°57' W 090°01'5 7.6
2015-Jul-02 09:30N 29°55' W 090°06'0 0.0
2015-Jul-02 08:21N 29°55' W 090°06'0 0.0
2015-Jul-02 07:31N 29°55' W 090°06'0 0.0
2015-Jul-02 06:33N 29°55' W 090°06'0 0.0
2015-Jul-02 05:32N 29°55' W 090°06'0 0.0
2015-Jul-02 04:33N 29°55' W 090°06'0 0.0
2015-Jul-02 03:33N 29°55' W 090°06'0 0.0
2015-Jul-02 02:33N 29°55' W 090°06'0 0.0
2015-Jul-02 01:32N 29°55' W 090°06'0 0.0
2015-Jul-02 00:32N 29°55' W 090°06'1 0.6
2015-Jul-01 23:30N 29°55' W 090°07'2 1.0
2015-Jul-01 21:31N 29°55' W 090°04'0 0.0
2015-Jul-01 20:28N 29°55' W 090°04'0 0.0
2015-Jul-01 19:19N 29°55' W 090°04'0 0.0
2015-Jul-01 18:27N 29°55' W 090°04'0 0.0
2015-Jul-01 17:32N 29°55' W 090°04'0 0.0
2015-Jul-01 16:33N 29°55' W 090°04'0 0.0
2015-Jul-01 15:25N 29°55' W 090°04'1 1.6
2015-Jul-01 14:31N 29°55' W 090°06'0 0.0
2015-Jul-01 13:33N 29°55' W 090°06'0 0.0
2015-Jul-01 12:25N 29°55' W 090°06'0 0.0
2015-Jul-01 11:27N 29°55' W 090°06'1 0.6
2015-Jul-01 10:23N 29°55' W 090°07'1 0.7
2015-Jul-01 09:31N 29°55' W 090°06'0 0.0
2015-Jul-01 08:33N 29°55' W 090°06'0 0.0
2015-Jul-01 07:32N 29°55' W 090°06'0 0.0
2015-Jul-01 06:33N 29°55' W 090°06'0 0.0
2015-Jul-01 05:32N 29°55' W 090°06'0 0.0
2015-Jul-01 04:33N 29°55' W 090°06'0 0.0
2015-Jul-01 03:31N 29°55' W 090°06'0 0.0
2015-Jul-01 02:32N 29°55' W 090°06'0 0.0
2015-Jul-01 01:09N 29°55' W 090°06'0 0.0
2015-Jun-30 08:04N 29°55' W 090°06'0 0.0
2015-Jun-30 05:33N 29°55' W 090°06'0 0.0
2015-Jun-30 04:31N 29°55' W 090°06'0 0.4
2015-Jun-30 03:32N 29°55' W 090°06'0 0.0
2015-Jun-30 01:29N 29°55' W 090°06'0 0.1
2015-Jun-30 00:32N 29°55' W 090°06'0 0.1
2015-Jun-29 23:25N 29°55' W 090°06'0 0.2
2015-Jun-29 22:28N 29°55' W 090°06'0 0.0
2015-Jun-29 11:06N 29°55' W 090°06'1 1.0
2015-Jun-29 10:32N 29°55' W 090°05'0 0.5
2015-Jun-29 09:29N 29°55' W 090°06'0 0.0
2015-Jun-29 08:27N 29°55' W 090°06'1 0.1
2015-Jun-29 00:05N 29°55' W 090°05'2 0.9
2015-Jun-28 22:24N 29°55' W 090°07'1 1.4
2015-Jun-28 21:33N 29°55' W 090°05'0 0.0
2015-Jun-28 19:14N 29°55' W 090°05'1 1.0
2015-Jun-28 18:21N 29°54' W 090°06'0 0.1
2015-Jun-28 13:09N 29°55' W 090°06'0 0.0
2015-Jun-28 11:33N 29°55' W 090°06'0 0.0
2015-Jun-28 10:30N 29°55' W 090°06'0 0.0
2015-Jun-28 09:18N 29°55' W 090°06'0 0.0
2015-Jun-28 08:32N 29°55' W 090°06'0 0.0
2015-Jun-28 06:32N 29°55' W 090°06'0 0.0
2015-Jun-28 05:32N 29°55' W 090°06'1 0.4
2015-Jun-28 04:20N 29°54' W 090°06'1 1.1
2015-Jun-28 03:31N 29°55' W 090°05'0 0.1
2015-Jun-28 01:20N 29°55' W 090°05'0 0.6
2015-Jun-28 00:31N 29°55' W 090°06'0 0.0
2015-Jun-27 23:25N 29°55' W 090°06'0 0.0
2015-Jun-27 22:22N 29°55' W 090°06'0 0.0
2015-Jun-27 21:32N 29°55' W 090°06'0 0.0
2015-Jun-27 20:30N 29°55' W 090°06'0 0.0
2015-Jun-27 19:32N 29°55' W 090°06'0 0.0
2015-Jun-27 17:21N 29°55' W 090°06'0 0.0
2015-Jun-27 16:33N 29°55' W 090°06'0 0.0
2015-Jun-27 15:24N 29°55' W 090°06'0 0.0
2015-Jun-27 14:30N 29°55' W 090°06'0 0.0
2015-Jun-27 13:30N 29°55' W 090°06'0 0.4
2015-Jun-27 12:31N 29°55' W 090°06'0 0.4
2015-Jun-27 11:33N 29°55' W 090°06'0 0.0
2015-Jun-27 10:31N 29°55' W 090°06'0 0.0
2015-Jun-27 09:33N 29°55' W 090°06'0 0.0
2015-Jun-27 08:30N 29°55' W 090°06'0 0.0
2015-Jun-27 07:32N 29°55' W 090°06'0 0.0
2015-Jun-27 06:32N 29°55' W 090°06'0 0.5
2015-Jun-27 05:33N 29°55' W 090°05'  

Dump ship's entire track history